Time;durP1;ratioP1;P1;durP2;ratioP2;P2;SDS_P1;SDS_P2;PMS_P1;PMS_P2;Temp;Humidity;BMP_temperature;BMP_pressure;BME280_temperature;BME280_humidity;BME280_pressure;Samples;Min_cycle;Max_cycle;Signal;HPM_P1;HPM_P2
2021/10/29 00:01:43;;;;;;;15.77;12.32;;;;;;;;;;5106900;28;20414;-86
2021/10/29 00:04:10;;;;;;;15.45;12.48;;;;;;;;;;5103955;28;20410;-86
2021/10/29 00:06:37;;;;;;;14.68;12.80;;;;;;;;;;5108523;28;20425;-86
2021/10/29 00:09:04;;;;;;;15.95;12.90;;;;;;;;;;5108548;27;20394;-85
2021/10/29 00:11:31;;;;;;;16.83;12.90;;;;;;;;;;5108525;28;20401;-86
2021/10/29 00:13:58;;;;;;;21.55;13.70;;;;;;;;;;5108496;27;20407;-86
2021/10/29 00:16:26;;;;;;;15.63;12.95;;;;;;;;;;5106286;27;21178;-86
2021/10/29 00:18:53;;;;;;;15.77;12.80;;;;;;;;;;5108192;28;20406;-86
2021/10/29 00:21:20;;;;;;;17.23;13.38;;;;;;;;;;5105980;28;20409;-86
2021/10/29 00:23:46;;;;;;;14.73;12.52;;;;;;;;;;5106420;28;20405;-86
2021/10/29 00:26:13;;;;;;;15.27;12.48;;;;;;;;;;5107581;28;20499;-86
2021/10/29 00:28:40;;;;;;;17.10;13.53;;;;;;;;;;5103065;28;20492;-86
2021/10/29 00:31:07;;;;;;;15.40;12.80;;;;;;;;;;5105896;28;20407;-86
2021/10/29 00:33:35;;;;;;;16.42;13.20;;;;;;;;;;5107856;28;20405;-86
2021/10/29 00:36:02;;;;;;;15.82;12.95;;;;;;;;;;5107766;28;20401;-86
2021/10/29 00:38:29;;;;;;;19.88;12.95;;;;;;;;;;5108145;28;20925;-86
2021/10/29 00:40:56;;;;;;;16.08;12.40;;;;;;;;;;5107816;28;20795;-86
2021/10/29 00:43:23;;;;;;;15.48;13.07;;;;;;;;;;5107550;28;20395;-86
2021/10/29 00:45:50;;;;;;;16.33;13.18;;;;;;;;;;5105053;28;20422;-86
2021/10/29 00:48:17;;;;;;;17.55;13.13;;;;;;;;;;5107523;28;20406;-87
2021/10/29 00:50:46;;;;;;;17.88;13.45;;;;;;;;;;5107861;28;20395;-86
2021/10/29 00:53:14;;;;;;;15.65;13.18;;;;;;;;;;5103337;28;20390;-86
2021/10/29 00:55:41;;;;;;;17.48;12.25;;;;;;;;;;5102206;28;20909;-86
2021/10/29 00:58:08;;;;;;;16.90;13.18;;;;;;;;;;5106777;28;20406;-86
2021/10/29 01:00:35;;;;;;;15.30;12.57;;;;;;;;;;5106887;27;20406;-86
2021/10/29 01:03:02;;;;;;;14.55;12.40;;;;;;;;;;5106031;28;20399;-86
2021/10/29 01:05:29;;;;;;;16.02;12.82;;;;;;;;;;5106442;28;20415;-86
2021/10/29 01:07:58;;;;;;;17.98;13.13;;;;;;;;;;5107059;28;20395;-86
2021/10/29 01:10:29;;;;;;;15.45;12.48;;;;;;;;;;5107054;28;20436;-86
2021/10/29 01:12:56;;;;;;;16.47;12.83;;;;;;;;;;5107044;28;20407;-86
2021/10/29 01:15:24;;;;;;;15.05;12.25;;;;;;;;;;5105465;27;20402;-86
2021/10/29 01:17:50;;;;;;;15.07;12.02;;;;;;;;;;5107307;28;20394;-86
2021/10/29 01:20:20;;;;;;;16.17;12.50;;;;;;;;;;5106789;28;20398;-86
2021/10/29 01:22:47;;;;;;;15.20;12.50;;;;;;;;;;5103776;28;20891;-87
2021/10/29 01:25:13;;;;;;;16.35;12.55;;;;;;;;;;5102219;28;20511;-86
2021/10/29 01:27:41;;;;;;;14.43;12.30;;;;;;;;;;5104800;27;20409;-87
2021/10/29 01:30:10;;;;;;;15.57;12.25;;;;;;;;;;5106633;28;20801;-87
2021/10/29 01:32:37;;;;;;;15.63;12.32;;;;;;;;;;5105209;28;20402;-86
2021/10/29 01:35:05;;;;;;;14.88;12.35;;;;;;;;;;5106303;28;20410;-86
2021/10/29 01:37:37;;;;;;;16.20;12.70;;;;;;;;;;5106401;28;20446;-86
2021/10/29 01:40:06;;;;;;;15.63;12.93;;;;;;;;;;5106281;28;20456;-86
2021/10/29 01:42:33;;;;;;;15.57;12.95;;;;;;;;;;5106314;28;20399;-86
2021/10/29 01:45:00;;;;;;;14.57;12.30;;;;;;;;;;5103803;28;20416;-86
2021/10/29 01:47:27;;;;;;;14.60;12.32;;;;;;;;;;5106264;28;20411;-86
2021/10/29 01:49:54;;;;;;;16.17;12.00;;;;;;;;;;5106267;28;20405;-86
2021/10/29 01:52:21;;;;;;;17.30;12.35;;;;;;;;;;5105993;28;20901;-86
2021/10/29 01:54:49;;;;;;;16.40;13.07;;;;;;;;;;5106402;28;20399;-87
2021/10/29 01:57:16;;;;;;;14.52;12.20;;;;;;;;;;5102469;28;20778;-87
2021/10/29 01:59:43;;;;;;;15.63;12.57;;;;;;;;;;5106426;28;20451;-87
2021/10/29 02:02:10;;;;;;;15.80;12.70;;;;;;;;;;5093955;28;20411;-86
2021/10/29 02:04:36;;;;;;;17.20;13.30;;;;;;;;;;5086278;28;20767;-86
2021/10/29 02:07:04;;;;;;;14.80;12.70;;;;;;;;;;5086433;28;20469;-86
2021/10/29 02:09:31;;;;;;;15.25;13.07;;;;;;;;;;5086680;28;20393;-86
2021/10/29 02:11:59;;;;;;;14.45;12.27;;;;;;;;;;5086086;28;20428;-86
2021/10/29 02:14:26;;;;;;;16.25;12.63;;;;;;;;;;5087213;28;20997;-86
2021/10/29 02:16:53;;;;;;;15.65;11.90;;;;;;;;;;5090919;28;20457;-86
2021/10/29 02:19:20;;;;;;;14.90;11.85;;;;;;;;;;5086800;28;20400;-86
2021/10/29 02:21:47;;;;;;;17.90;12.53;;;;;;;;;;5086524;28;20407;-87
2021/10/29 02:24:13;;;;;;;14.63;12.00;;;;;;;;;;5086006;28;20979;-86
2021/10/29 02:26:40;;;;;;;13.30;11.68;;;;;;;;;;5086221;28;20416;-86
2021/10/29 02:29:09;;;;;;;16.13;11.63;;;;;;;;;;5086252;28;20424;-86
2021/10/29 02:31:35;;;;;;;13.88;11.45;;;;;;;;;;5086420;28;20499;-86
2021/10/29 02:34:03;;;;;;;13.98;11.60;;;;;;;;;;5086247;28;20404;-86
2021/10/29 02:36:29;;;;;;;14.55;11.38;;;;;;;;;;5086318;28;20761;-86
2021/10/29 02:38:56;;;;;;;13.23;10.82;;;;;;;;;;5086607;28;20403;-86
2021/10/29 02:41:24;;;;;;;14.70;11.15;;;;;;;;;;5086319;28;20412;-87
2021/10/29 02:43:51;;;;;;;16.43;11.43;;;;;;;;;;5086610;28;20943;-86
2021/10/29 02:46:19;;;;;;;13.23;10.80;;;;;;;;;;5098980;28;20416;-86
2021/10/29 02:48:46;;;;;;;14.07;11.32;;;;;;;;;;5085510;28;20917;-86
2021/10/29 02:51:13;;;;;;;13.57;11.10;;;;;;;;;;5087929;28;20435;-86
2021/10/29 02:53:40;;;;;;;14.48;11.50;;;;;;;;;;5091175;28;20392;-86
2021/10/29 02:56:08;;;;;;;13.88;11.35;;;;;;;;;;5102569;28;20483;-86
2021/10/29 02:58:35;;;;;;;13.80;10.65;;;;;;;;;;5112551;28;20420;-87
2021/10/29 03:01:02;;;;;;;12.10;10.53;;;;;;;;;;5095733;27;20404;-87
2021/10/29 03:03:30;;;;;;;13.23;10.50;;;;;;;;;;5094387;28;20416;-86
2021/10/29 03:05:58;;;;;;;14.45;10.65;;;;;;;;;;5093302;28;20473;-86
2021/10/29 03:08:25;;;;;;;12.52;10.85;;;;;;;;;;5094445;28;20392;-86
2021/10/29 03:10:54;;;;;;;13.27;10.50;;;;;;;;;;5091405;28;20487;-86
2021/10/29 03:13:21;;;;;;;14.30;10.63;;;;;;;;;;5100555;28;20944;-86
2021/10/29 03:15:49;;;;;;;13.70;10.53;;;;;;;;;;5112547;28;20438;-87
2021/10/29 03:18:16;;;;;;;13.05;10.57;;;;;;;;;;5129085;27;20399;-85
2021/10/29 03:20:45;;;;;;;12.10;10.30;;;;;;;;;;5128712;28;20436;-86
2021/10/29 03:23:14;;;;;;;15.00;10.70;;;;;;;;;;5125164;28;20408;-86
2021/10/29 03:25:42;;;;;;;11.77;9.88;;;;;;;;;;5131898;28;20406;-85
2021/10/29 03:28:09;;;;;;;13.73;9.90;;;;;;;;;;5131002;28;20769;-86
2021/10/29 03:30:36;;;;;;;11.40;9.43;;;;;;;;;;5128474;28;20409;-87
2021/10/29 03:33:03;;;;;;;12.20;9.15;;;;;;;;;;5107075;28;20395;-84
2021/10/29 03:35:31;;;;;;;12.40;9.73;;;;;;;;;;5095067;28;20398;-87
2021/10/29 03:38:11;;;;;;;12.25;9.90;;;;;;;;;;5090093;28;20729;-87
2021/10/29 03:40:46;;;;;;;13.23;9.38;;;;;;;;;;5089811;28;20553;-86
2021/10/29 03:43:19;;;;;;;11.32;9.73;;;;;;;;;;5090124;28;20524;-87
2021/10/29 03:45:49;;;;;;;10.90;9.00;;;;;;;;;;5092365;27;20495;-87
2021/10/29 03:48:18;;;;;;;11.00;9.52;;;;;;;;;;5109531;28;20403;-87
2021/10/29 03:50:59;;;;;;;12.00;9.32;;;;;;;;;;5109851;28;20456;-86
2021/10/29 03:53:32;;;;;;;12.00;9.30;;;;;;;;;;5109638;28;20430;-86
2021/10/29 03:56:00;;;;;;;10.60;9.25;;;;;;;;;;5109537;28;20406;-86
2021/10/29 03:58:27;;;;;;;12.93;9.25;;;;;;;;;;5109639;28;20402;-86
2021/10/29 04:00:54;;;;;;;12.43;9.63;;;;;;;;;;5104040;28;20397;-86
2021/10/29 04:03:22;;;;;;;11.15;8.77;;;;;;;;;;5089191;28;20430;-87
2021/10/29 04:05:49;;;;;;;11.90;8.70;;;;;;;;;;5096827;28;20818;-86
2021/10/29 04:08:16;;;;;;;10.82;8.95;;;;;;;;;;5100046;28;20405;-86
2021/10/29 04:10:45;;;;;;;12.13;9.27;;;;;;;;;;5107679;28;20751;-86
2021/10/29 04:13:12;;;;;;;11.43;9.07;;;;;;;;;;5108179;27;20403;-86
2021/10/29 04:15:40;;;;;;;11.93;9.43;;;;;;;;;;5106502;28;20822;-86
2021/10/29 04:18:07;;;;;;;9.93;8.90;;;;;;;;;;5108126;28;20476;-86
2021/10/29 04:20:35;;;;;;;10.60;9.33;;;;;;;;;;5108229;28;20430;-85
2021/10/29 04:23:02;;;;;;;10.70;9.10;;;;;;;;;;5108103;28;20844;-86
2021/10/29 04:25:28;;;;;;;11.73;9.60;;;;;;;;;;5107702;28;20398;-86
2021/10/29 04:27:58;;;;;;;14.07;10.35;;;;;;;;;;5108232;28;20434;-86
2021/10/29 04:30:28;;;;;;;14.07;10.00;;;;;;;;;;5106602;27;20397;-86
2021/10/29 04:32:55;;;;;;;12.80;9.88;;;;;;;;;;5108103;28;20481;-86
2021/10/29 04:35:22;;;;;;;13.32;9.90;;;;;;;;;;5107725;28;20404;-86
2021/10/29 04:37:49;;;;;;;13.25;9.65;;;;;;;;;;5107672;28;20440;-86
2021/10/29 04:40:16;;;;;;;12.02;9.45;;;;;;;;;;5107702;28;20404;-86
2021/10/29 04:42:42;;;;;;;13.70;9.63;;;;;;;;;;5107294;28;20883;-86
2021/10/29 04:45:11;;;;;;;12.27;9.73;;;;;;;;;;5105301;28;20408;-86
2021/10/29 04:47:38;;;;;;;14.05;10.23;;;;;;;;;;5105911;27;20497;-86
2021/10/29 04:50:07;;;;;;;13.07;10.02;;;;;;;;;;5107121;28;20419;-86
2021/10/29 04:52:34;;;;;;;12.52;9.85;;;;;;;;;;5104806;28;20437;-86
2021/10/29 04:55:01;;;;;;;11.38;9.13;;;;;;;;;;5106762;28;20880;-85
2021/10/29 04:57:27;;;;;;;11.57;9.32;;;;;;;;;;5103356;28;20392;-86
2021/10/29 04:59:54;;;;;;;11.75;9.18;;;;;;;;;;5108022;28;20410;-86
2021/10/29 05:02:23;;;;;;;13.95;9.85;;;;;;;;;;5104779;28;20416;-86
2021/10/29 05:04:49;;;;;;;12.88;9.60;;;;;;;;;;5106407;28;20440;-86
2021/10/29 05:07:16;;;;;;;14.73;9.93;;;;;;;;;;5105937;28;20801;-86
2021/10/29 05:09:43;;;;;;;14.30;10.10;;;;;;;;;;5107206;28;20402;-86
2021/10/29 05:12:10;;;;;;;16.13;10.20;;;;;;;;;;5108628;27;20400;-87
2021/10/29 05:14:37;;;;;;;13.35;10.02;;;;;;;;;;5105483;28;20412;-86
2021/10/29 05:17:04;;;;;;;11.57;9.80;;;;;;;;;;5102880;27;20431;-87
2021/10/29 05:19:32;;;;;;;13.60;9.93;;;;;;;;;;5107327;28;20448;-86
2021/10/29 05:21:59;;;;;;;12.75;9.93;;;;;;;;;;5098511;27;20403;-86
2021/10/29 05:24:26;;;;;;;14.18;10.35;;;;;;;;;;5105856;28;21004;-85
2021/10/29 05:26:53;;;;;;;14.68;10.75;;;;;;;;;;5105336;28;20423;-87
2021/10/29 05:29:20;;;;;;;13.77;10.98;;;;;;;;;;5101168;28;20442;-86
2021/10/29 05:31:47;;;;;;;29.50;20.98;;;;;;;;;;5106193;28;20399;-86
2021/10/29 05:34:13;;;;;;;26.57;18.73;;;;;;;;;;5107796;27;20406;-86
2021/10/29 05:36:42;;;;;;;16.92;13.25;;;;;;;;;;5104836;28;20467;-87
2021/10/29 05:39:10;;;;;;;20.80;16.48;;;;;;;;;;5103280;28;20404;-84
2021/10/29 05:41:37;;;;;;;43.55;31.20;;;;;;;;;;5109188;27;20446;-85
2021/10/29 05:44:05;;;;;;;23.75;17.08;;;;;;;;;;5105504;28;20398;-84
2021/10/29 05:46:32;;;;;;;53.78;31.42;;;;;;;;;;5105132;28;20406;-87
2021/10/29 05:48:59;;;;;;;48.65;29.10;;;;;;;;;;5102545;28;20402;-87
2021/10/29 05:51:27;;;;;;;25.88;14.65;;;;;;;;;;5105895;28;20406;-87
2021/10/29 05:54:09;;;;;;;15.57;11.45;;;;;;;;;;5106526;28;20449;-87
2021/10/29 05:56:36;;;;;;;14.38;10.65;;;;;;;;;;5107405;28;20443;-86
2021/10/29 05:59:04;;;;;;;16.15;9.98;;;;;;;;;;5109287;28;20400;-88
2021/10/29 06:01:31;;;;;;;13.93;9.90;;;;;;;;;;5113743;27;20402;-88
2021/10/29 06:03:58;;;;;;;17.13;10.90;;;;;;;;;;5122874;28;20923;-88
2021/10/29 06:06:26;;;;;;;15.37;10.13;;;;;;;;;;5105628;28;20516;-88
2021/10/29 06:08:53;;;;;;;14.13;10.23;;;;;;;;;;5106437;28;20400;-88
2021/10/29 06:11:26;;;;;;;16.75;9.77;;;;;;;;;;5105513;28;20406;-87
2021/10/29 06:13:53;;;;;;;13.55;9.25;;;;;;;;;;5103520;28;20500;-88
2021/10/29 06:16:20;;;;;;;13.88;9.82;;;;;;;;;;5104113;28;20419;-87
2021/10/29 06:18:48;;;;;;;13.88;9.88;;;;;;;;;;5107050;28;20763;-87
2021/10/29 06:21:17;;;;;;;13.20;9.97;;;;;;;;;;5105379;28;20444;-87
2021/10/29 06:23:53;;;;;;;13.27;10.20;;;;;;;;;;5107033;28;20455;-87
2021/10/29 06:26:24;;;;;;;14.33;9.57;;;;;;;;;;5107945;28;20466;-87
2021/10/29 06:28:51;;;;;;;13.60;9.90;;;;;;;;;;5111562;28;20407;-87
2021/10/29 06:31:18;;;;;;;14.85;9.98;;;;;;;;;;5108603;28;20758;-88
2021/10/29 06:33:46;;;;;;;13.50;9.90;;;;;;;;;;5110339;28;20418;-88
2021/10/29 06:36:13;;;;;;;19.77;10.27;;;;;;;;;;5110139;28;20448;-88
2021/10/29 06:38:41;;;;;;;16.77;9.93;;;;;;;;;;5111040;28;20411;-88
2021/10/29 06:41:09;;;;;;;14.52;10.10;;;;;;;;;;5110947;28;20445;-88
2021/10/29 06:43:40;;;;;;;14.40;10.15;;;;;;;;;;5106190;27;20903;-88
2021/10/29 06:46:22;;;;;;;13.18;9.77;;;;;;;;;;5109337;27;20456;-87
2021/10/29 06:48:52;;;;;;;12.98;9.70;;;;;;;;;;5110662;28;20474;-89
2021/10/29 06:59:48;;;;;;;12.20;8.77;;;;;;;;;;5106579;28;20482;-87
2021/10/29 07:02:37;;;;;;;14.02;9.35;;;;;;;;;;5106636;27;20477;-87
2021/10/29 07:05:24;;;;;;;13.38;9.13;;;;;;;;;;5106446;28;20473;-87
2021/10/29 07:41:22;;;;;;;13.77;10.52;;;;;;;;;;5107782;28;20511;-88
2021/10/29 07:43:51;;;;;;;14.27;9.40;;;;;;;;;;5102494;28;20405;-87
2021/10/29 07:46:18;;;;;;;11.98;8.65;;;;;;;;;;5108285;27;20399;-88
2021/10/29 07:48:47;;;;;;;11.20;9.32;;;;;;;;;;5109145;28;20418;-87
2021/10/29 07:51:15;;;;;;;12.65;9.57;;;;;;;;;;5109749;28;20395;-88
2021/10/29 07:53:42;;;;;;;14.88;10.35;;;;;;;;;;5109737;28;20391;-87
2021/10/29 07:56:09;;;;;;;14.60;10.57;;;;;;;;;;5109464;28;20407;-88
2021/10/29 07:58:37;;;;;;;17.17;12.70;;;;;;;;;;5110133;28;20394;-88
2021/10/29 08:01:04;;;;;;;18.90;13.43;;;;;;;;;;5098796;27;20413;-87
2021/10/29 08:03:31;;;;;;;18.33;13.98;;;;;;;;;;5109237;28;20405;-88
2021/10/29 08:06:00;;;;;;;19.80;14.80;;;;;;;;;;5109161;28;20769;-87
2021/10/29 08:08:27;;;;;;;21.27;15.30;;;;;;;;;;5111157;28;20414;-87
2021/10/29 08:10:54;;;;;;;20.13;15.27;;;;;;;;;;5110725;28;20415;-88
2021/10/29 08:13:21;;;;;;;20.98;16.45;;;;;;;;;;5108959;28;20480;-87
2021/10/29 08:15:53;;;;;;;20.85;16.48;;;;;;;;;;5107108;27;20401;-88
2021/10/29 08:18:20;;;;;;;21.45;16.70;;;;;;;;;;5109012;28;20902;-86
2021/10/29 08:20:47;;;;;;;21.13;16.73;;;;;;;;;;5108976;28;20425;-88
2021/10/29 08:23:16;;;;;;;23.65;17.77;;;;;;;;;;5107759;28;20882;-85
2021/10/29 08:25:43;;;;;;;24.70;18.37;;;;;;;;;;5108060;28;20386;-85
2021/10/29 08:28:10;;;;;;;26.48;19.00;;;;;;;;;;5108378;27;20419;-85
2021/10/29 08:30:37;;;;;;;23.77;18.85;;;;;;;;;;5106405;28;20432;-86
2021/10/29 08:33:04;;;;;;;26.17;19.77;;;;;;;;;;5108564;28;20394;-85
2021/10/29 08:35:31;;;;;;;26.40;19.48;;;;;;;;;;5106977;28;20410;-85
2021/10/29 08:37:57;;;;;;;25.83;19.33;;;;;;;;;;5108370;28;20403;-85
2021/10/29 08:40:26;;;;;;;24.05;19.05;;;;;;;;;;5108332;28;20489;-85
2021/10/29 08:42:53;;;;;;;25.03;18.77;;;;;;;;;;5106263;27;20410;-85
2021/10/29 08:45:21;;;;;;;24.95;19.02;;;;;;;;;;5107612;28;20395;-85
2021/10/29 08:47:49;;;;;;;24.15;18.85;;;;;;;;;;5107219;28;20479;-85
2021/10/29 08:50:18;;;;;;;24.52;18.63;;;;;;;;;;5107258;28;20403;-85
2021/10/29 08:52:46;;;;;;;25.33;19.08;;;;;;;;;;5107348;28;20870;-85
2021/10/29 08:55:14;;;;;;;25.85;18.40;;;;;;;;;;5108366;28;21169;-85
2021/10/29 08:57:44;;;;;;;25.77;19.07;;;;;;;;;;5108380;28;20434;-84
2021/10/29 09:00:16;;;;;;;24.00;18.20;;;;;;;;;;5108034;28;20399;-85
2021/10/29 09:02:50;;;;;;;24.00;17.88;;;;;;;;;;5105456;28;20897;-85
2021/10/29 09:05:26;;;;;;;22.20;17.77;;;;;;;;;;5104605;28;20954;-85
2021/10/29 09:08:06;;;;;;;24.40;19.17;;;;;;;;;;5107550;28;20727;-85
2021/10/29 09:32:53;;;;;;;25.42;18.23;;;;;;;;;;5120641;28;20428;-85
2021/10/29 09:35:21;;;;;;;25.33;18.23;;;;;;;;;;5106356;28;20437;-85
2021/10/29 09:37:57;;;;;;;25.97;18.47;;;;;;;;;;5107231;28;20407;-85
2021/10/29 09:40:25;;;;;;;24.98;18.65;;;;;;;;;;5107128;28;20446;-85
2021/10/29 09:42:54;;;;;;;24.83;18.93;;;;;;;;;;5104295;28;20409;-85
2021/10/29 09:45:27;;;;;;;23.70;17.77;;;;;;;;;;5105954;28;20867;-85
2021/10/29 09:48:11;;;;;;;22.83;18.20;;;;;;;;;;5104876;28;20417;-85
2021/10/29 09:50:47;;;;;;;26.88;18.45;;;;;;;;;;5104557;28;20898;-85
2021/10/29 09:53:34;;;;;;;23.17;17.70;;;;;;;;;;5107079;28;20501;-85
2021/10/29 09:56:04;;;;;;;27.55;19.25;;;;;;;;;;5106161;28;20418;-85
2021/10/29 09:58:31;;;;;;;27.92;18.88;;;;;;;;;;5105998;28;21195;-85
2021/10/29 10:01:00;;;;;;;24.90;19.35;;;;;;;;;;5105385;28;20452;-83
2021/10/29 10:03:28;;;;;;;25.48;18.83;;;;;;;;;;5105917;28;21035;-85
2021/10/29 10:05:56;;;;;;;24.10;18.70;;;;;;;;;;5105623;28;20703;-85
2021/10/29 10:08:27;;;;;;;26.70;19.55;;;;;;;;;;5106297;28;20913;-85
2021/10/29 10:10:58;;;;;;;27.02;20.23;;;;;;;;;;5104669;28;20463;-84
2021/10/29 10:13:25;;;;;;;24.63;19.73;;;;;;;;;;5106167;28;20871;-84
2021/10/29 10:15:56;;;;;;;24.02;19.20;;;;;;;;;;5104249;28;20415;-84
2021/10/29 10:18:25;;;;;;;25.73;19.38;;;;;;;;;;5105902;28;20425;-84
2021/10/29 10:20:53;;;;;;;26.30;19.75;;;;;;;;;;5105675;28;20410;-84
2021/10/29 10:23:25;;;;;;;23.83;18.90;;;;;;;;;;5106409;28;20485;-84
2021/10/29 10:28:53;;;;;;;24.50;19.77;;;;;;;;;;5088494;28;20907;-84
2021/10/29 10:43:20;;;;;;;22.70;18.60;;;;;;;;;;5106088;28;20431;-85
2021/10/29 10:45:55;;;;;;;24.00;18.33;;;;;;;;;;5103631;28;20936;-85
2021/10/29 10:48:27;;;;;;;25.48;18.58;;;;;;;;;;5104504;28;20493;-84
2021/10/29 10:51:51;;;;;;;23.77;18.80;;;;;;;;;;5104001;28;20977;-85
2021/10/29 10:54:29;;;;;;;23.27;18.43;;;;;;;;;;5104014;28;20414;-85
2021/10/29 10:57:08;;;;;;;22.63;17.83;;;;;;;;;;5104725;28;20403;-85
2021/10/29 10:59:45;;;;;;;23.02;18.20;;;;;;;;;;5105916;28;20489;-85
2021/10/29 11:05:18;;;;;;;21.92;17.67;;;;;;;;;;5109758;28;20397;-85
2021/10/29 11:10:59;;;;;;;22.70;17.92;;;;;;;;;;5118424;28;20440;-85
2021/10/29 11:13:27;;;;;;;21.67;17.00;;;;;;;;;;5120586;28;20402;-86
2021/10/29 11:16:01;;;;;;;22.97;17.30;;;;;;;;;;5119089;27;20465;-88
2021/10/29 11:18:33;;;;;;;19.55;16.40;;;;;;;;;;5131282;28;21095;-88
2021/10/29 11:21:18;;;;;;;23.98;17.17;;;;;;;;;;5131499;28;20403;-88
2021/10/29 11:23:53;;;;;;;20.83;16.45;;;;;;;;;;5131960;28;20421;-89
2021/10/29 11:26:28;;;;;;;21.42;16.45;;;;;;;;;;5129848;28;20489;-86
2021/10/29 11:28:56;;;;;;;21.58;16.58;;;;;;;;;;5122646;28;21192;-88
2021/10/29 11:31:25;;;;;;;22.65;17.20;;;;;;;;;;5117606;27;20398;-87
2021/10/29 11:33:54;;;;;;;19.75;15.57;;;;;;;;;;5132265;28;20411;-88
2021/10/29 11:36:24;;;;;;;20.90;15.90;;;;;;;;;;5130433;28;20405;-88
2021/10/29 11:38:53;;;;;;;21.60;16.27;;;;;;;;;;5116764;28;20424;-88
2021/10/29 11:41:23;;;;;;;21.88;15.90;;;;;;;;;;5111403;28;20391;-88
2021/10/29 11:43:52;;;;;;;20.42;15.38;;;;;;;;;;5127936;28;20398;-88
2021/10/29 11:46:24;;;;;;;19.90;14.98;;;;;;;;;;5127884;28;20411;-86
2021/10/29 11:48:59;;;;;;;21.42;15.82;;;;;;;;;;5126884;28;20746;-88
2021/10/29 11:51:26;;;;;;;18.25;15.30;;;;;;;;;;5110059;28;20459;-87
2021/10/29 11:53:59;;;;;;;20.80;15.45;;;;;;;;;;5108077;28;20418;-88
2021/10/29 11:56:34;;;;;;;18.40;14.73;;;;;;;;;;5106722;28;20441;-87
2021/10/29 12:07:26;;;;;;;18.27;15.32;;;;;;;;;;5107959;28;20397;-90
2021/10/29 12:09:56;;;;;;;19.45;14.95;;;;;;;;;;5107661;28;20509;-88
2021/10/29 12:12:28;;;;;;;22.20;15.20;;;;;;;;;;5106375;28;20398;-87
2021/10/29 12:14:56;;;;;;;21.13;15.32;;;;;;;;;;5107410;28;20402;-88
2021/10/29 12:17:27;;;;;;;19.73;15.70;;;;;;;;;;5104041;27;20886;-88
2021/10/29 12:19:57;;;;;;;20.48;16.20;;;;;;;;;;5107872;28;20785;-88
2021/10/29 12:22:33;;;;;;;19.98;15.98;;;;;;;;;;5108516;27;20455;-88
2021/10/29 12:25:08;;;;;;;19.55;16.35;;;;;;;;;;5107964;28;20407;-88
2021/10/29 12:27:38;;;;;;;23.15;17.55;;;;;;;;;;5107055;27;20484;-88
2021/10/29 12:51:59;;;;;;;22.58;16.98;;;;;;;;;;5101779;27;20436;-87
2021/10/29 12:58:47;;;;;;;21.58;16.80;;;;;;;;;;5099112;27;20477;-88
2021/10/29 13:03:03;;;;;;;19.77;17.33;;;;;;;;;;5099622;28;20398;-86
2021/10/29 13:05:30;;;;;;;22.48;17.35;;;;;;;;;;5090995;28;20415;-86
2021/10/29 13:07:57;;;;;;;21.45;17.20;;;;;;;;;;5096623;28;20473;-88
2021/10/29 13:10:24;;;;;;;20.88;17.27;;;;;;;;;;5097687;27;20409;-87
2021/10/29 13:12:59;;;;;;;20.83;16.90;;;;;;;;;;5096730;28;20695;-88
2021/10/29 13:15:27;;;;;;;20.67;17.65;;;;;;;;;;5099689;27;20444;-87
2021/10/29 13:17:58;;;;;;;22.45;18.05;;;;;;;;;;5104013;28;20468;-88
2021/10/29 13:28:45;;;;;;;22.73;17.83;;;;;;;;;;5099441;28;20397;-87
2021/10/29 13:34:26;;;;;;;19.17;16.77;;;;;;;;;;5097237;28;20391;-87
2021/10/29 13:36:58;;;;;;;21.03;17.50;;;;;;;;;;5093108;28;20474;-87
2021/10/29 13:53:17;;;;;;;20.58;17.85;;;;;;;;;;5080236;28;20396;-87
2021/10/29 13:55:57;;;;;;;22.63;17.33;;;;;;;;;;5094014;28;20401;-85
2021/10/29 13:58:44;;;;;;;20.57;17.47;;;;;;;;;;5095480;28;20414;-87
2021/10/29 14:01:33;;;;;;;21.08;18.38;;;;;;;;;;5094337;28;20413;-87
2021/10/29 14:29:08;;;;;;;22.08;17.90;;;;;;;;;;5110721;28;20405;-84
2021/10/29 14:31:39;;;;;;;22.90;18.60;;;;;;;;;;5110382;28;20483;-85
2021/10/29 14:34:12;;;;;;;23.40;17.77;;;;;;;;;;5103266;28;20411;-85
2021/10/29 14:36:47;;;;;;;22.55;17.75;;;;;;;;;;5094726;28;20441;-85
2021/10/29 14:39:18;;;;;;;24.38;18.63;;;;;;;;;;5094075;28;20501;-85
2021/10/29 14:41:54;;;;;;;25.52;19.13;;;;;;;;;;5100741;28;20402;-85
2021/10/29 14:44:24;;;;;;;23.13;18.40;;;;;;;;;;5083796;28;20422;-85
2021/10/29 14:47:00;;;;;;;25.95;17.95;;;;;;;;;;5097399;28;20495;-85
2021/10/29 15:06:51;;;;;;;25.48;16.85;;;;;;;;;;5112175;27;20484;-84
2021/10/29 15:17:44;;;;;;;20.20;16.00;;;;;;;;;;5080128;27;20914;-83
2021/10/29 15:26:06;;;;;;;24.73;17.52;;;;;;;;;;5104750;28;20768;-84
2021/10/29 15:28:41;;;;;;;23.80;16.70;;;;;;;;;;5105454;27;20618;-84
2021/10/29 15:31:17;;;;;;;21.75;17.13;;;;;;;;;;5104844;27;21074;-84
2021/10/29 15:42:12;;;;;;;24.58;17.20;;;;;;;;;;5108095;28;20872;-83
2021/10/29 15:44:41;;;;;;;23.58;17.02;;;;;;;;;;5103389;28;20416;-83
2021/10/29 15:47:11;;;;;;;25.40;17.55;;;;;;;;;;5111140;27;20746;-84
2021/10/29 15:49:39;;;;;;;24.40;17.88;;;;;;;;;;5108663;28;20400;-84
2021/10/29 15:52:12;;;;;;;22.83;17.92;;;;;;;;;;5117657;27;20395;-84
2021/10/29 15:54:45;;;;;;;23.27;17.08;;;;;;;;;;5109338;28;20495;-84
2021/10/29 15:57:20;;;;;;;22.88;18.20;;;;;;;;;;5111164;28;21079;-84
2021/10/29 15:59:54;;;;;;;24.33;18.27;;;;;;;;;;5107364;27;20429;-84
2021/10/29 16:18:48;;;;;;;32.40;21.48;;;;;;;;;;5094893;28;20373;-84
2021/10/29 16:21:15;;;;;;;31.00;23.02;;;;;;;;;;5093889;28;20419;-84
2021/10/29 16:23:41;;;;;;;29.77;23.60;;;;;;;;;;5097433;28;20817;-84
2021/10/29 16:26:12;;;;;;;33.80;25.83;;;;;;;;;;5087260;28;20445;-84
2021/10/29 16:28:41;;;;;;;36.70;25.67;;;;;;;;;;5099045;27;20494;-85
2021/10/29 16:31:10;;;;;;;34.60;24.48;;;;;;;;;;5098990;27;20405;-84
2021/10/29 16:33:37;;;;;;;35.87;24.10;;;;;;;;;;5095806;28;20519;-84
2021/10/29 16:36:04;;;;;;;32.40;23.03;;;;;;;;;;5093706;28;20457;-84
2021/10/29 16:38:32;;;;;;;35.80;24.92;;;;;;;;;;5090496;28;20476;-84
2021/10/29 16:41:00;;;;;;;29.33;22.48;;;;;;;;;;5091200;28;20403;-84
2021/10/29 16:43:28;;;;;;;36.27;23.90;;;;;;;;;;5088680;28;20398;-85
2021/10/29 16:45:57;;;;;;;34.03;23.45;;;;;;;;;;5097598;27;20424;-83
2021/10/29 16:48:25;;;;;;;31.53;22.90;;;;;;;;;;5089989;28;20517;-85
2021/10/29 16:50:52;;;;;;;34.60;23.53;;;;;;;;;;5102694;28;20423;-82
2021/10/29 16:53:20;;;;;;;31.57;23.63;;;;;;;;;;5092390;28;20419;-83
2021/10/29 16:55:47;;;;;;;32.72;23.50;;;;;;;;;;5097258;28;20403;-83
2021/10/29 16:58:15;;;;;;;30.02;22.73;;;;;;;;;;5096173;27;20396;-83
2021/10/29 17:00:43;;;;;;;28.63;22.65;;;;;;;;;;5092595;28;20403;-83
2021/10/29 17:03:11;;;;;;;32.53;22.90;;;;;;;;;;5099803;28;20442;-83
2021/10/29 17:05:38;;;;;;;34.83;24.07;;;;;;;;;;5093506;28;20510;-83
2021/10/29 17:08:05;;;;;;;34.90;24.90;;;;;;;;;;5087514;28;20473;-82
2021/10/29 17:10:34;;;;;;;36.42;25.13;;;;;;;;;;5093356;28;20395;-82
2021/10/29 17:13:00;;;;;;;35.72;24.23;;;;;;;;;;5089726;28;20404;-81
2021/10/29 17:15:27;;;;;;;33.55;24.05;;;;;;;;;;5102653;27;20408;-81
2021/10/29 17:17:56;;;;;;;35.85;25.83;;;;;;;;;;5091687;28;20467;-82
2021/10/29 17:20:23;;;;;;;40.85;26.55;;;;;;;;;;5092197;28;20494;-82
2021/10/29 17:22:50;;;;;;;38.47;25.58;;;;;;;;;;5097761;28;20421;-82
2021/10/29 17:25:18;;;;;;;36.95;25.23;;;;;;;;;;5100765;28;20436;-80
2021/10/29 17:27:45;;;;;;;37.92;26.10;;;;;;;;;;5100515;28;21054;-82
2021/10/29 17:30:14;;;;;;;39.20;26.15;;;;;;;;;;5098839;28;20400;-82
2021/10/29 17:32:41;;;;;;;34.83;26.60;;;;;;;;;;5103975;28;20403;-83
2021/10/29 17:35:10;;;;;;;36.53;25.30;;;;;;;;;;5095452;28;20404;-82
2021/10/29 17:37:37;;;;;;;41.23;28.73;;;;;;;;;;5091530;28;20872;-82
2021/10/29 17:40:06;;;;;;;49.58;31.98;;;;;;;;;;5091815;28;20483;-84
2021/10/29 17:42:33;;;;;;;39.03;27.25;;;;;;;;;;5088109;28;20471;-82
2021/10/29 17:45:00;;;;;;;41.08;28.75;;;;;;;;;;5099366;27;20410;-82
2021/10/29 17:47:27;;;;;;;43.45;30.58;;;;;;;;;;5100034;27;20810;-82
2021/10/29 17:49:54;;;;;;;48.87;31.93;;;;;;;;;;5093022;28;20980;-81
2021/10/29 17:52:25;;;;;;;44.42;32.35;;;;;;;;;;5092389;28;20410;-82
2021/10/29 17:54:53;;;;;;;44.53;33.33;;;;;;;;;;5089954;28;20466;-81
2021/10/29 17:57:21;;;;;;;45.90;32.72;;;;;;;;;;5094509;28;20396;-82
2021/10/29 17:59:50;;;;;;;48.85;34.20;;;;;;;;;;5091910;28;20403;-82
2021/10/29 18:02:21;;;;;;;48.60;33.40;;;;;;;;;;5097071;28;20402;-77
2021/10/29 18:04:48;;;;;;;50.25;34.78;;;;;;;;;;5099479;28;20434;-82
2021/10/29 18:07:16;;;;;;;54.87;36.47;;;;;;;;;;5088739;28;20496;-82
2021/10/29 18:09:44;;;;;;;53.43;38.00;;;;;;;;;;5091246;28;20492;-81
2021/10/29 18:12:12;;;;;;;52.20;38.47;;;;;;;;;;5091790;28;20818;-83
2021/10/29 18:14:40;;;;;;;55.83;40.47;;;;;;;;;;5098237;28;20508;-81
2021/10/29 18:17:08;;;;;;;61.00;42.85;;;;;;;;;;5098672;28;20489;-81
2021/10/29 18:19:34;;;;;;;53.50;38.83;;;;;;;;;;5091607;28;20463;-81